Time;durP1;ratioP1;P1;durP2;ratioP2;P2;SDS_P1;SDS_P2;PMS_P1;PMS_P2;Temp;Humidity;BMP_temperature;BMP_pressure;BME280_temperature;BME280_humidity;BME280_pressure;Samples;Min_cycle;Max_cycle;Signal;HPM_P1;HPM_P2
2022/09/18 00:01:51;;;;;;;16.50;2.97;;;11.00;77.30;;;;;;4991567;28;20034;-42
2022/09/18 00:04:17;;;;;;;14.23;1.83;;;11.00;77.30;;;;;;5006686;28;20031;-42
2022/09/18 00:06:44;;;;;;;13.90;2.72;;;10.90;77.30;;;;;;5006523;28;20480;-43
2022/09/18 00:09:13;;;;;;;6.65;1.80;;;11.00;77.10;;;;;;4991216;28;20113;-42
2022/09/18 00:11:41;;;;;;;11.70;2.80;;;10.90;77.20;;;;;;4978355;28;20022;-41
2022/09/18 00:14:09;;;;;;;14.48;2.20;;;11.00;77.30;;;;;;4971902;28;20092;-42
2022/09/18 00:16:37;;;;;;;12.32;1.83;;;11.00;77.50;;;;;;4971412;28;20157;-43
2022/09/18 00:19:06;;;;;;;15.52;2.67;;;10.90;77.80;;;;;;4970784;28;20073;-44
2022/09/18 00:21:34;;;;;;;11.87;2.50;;;10.90;77.90;;;;;;4970861;28;20031;-42
2022/09/18 00:24:00;;;;;;;9.60;1.90;;;10.90;78.40;;;;;;4971758;28;20018;-44
2022/09/18 00:26:29;;;;;;;10.18;1.80;;;10.90;77.60;;;;;;4971498;28;20105;-43
2022/09/18 00:28:56;;;;;;;13.80;2.58;;;10.90;76.20;;;;;;4971517;28;20031;-42
2022/09/18 00:31:28;;;;;;;9.50;1.80;;;10.90;75.60;;;;;;4970364;28;20035;-44
2022/09/18 00:33:59;;;;;;;7.07;1.73;;;10.90;73.50;;;;;;4971001;28;20118;-43
2022/09/18 00:36:25;;;;;;;7.72;1.55;;;11.00;72.80;;;;;;4970068;28;20026;-42
2022/09/18 00:38:53;;;;;;;17.45;1.83;;;11.00;72.50;;;;;;4970191;28;20109;-43
2022/09/18 00:41:24;;;;;;;12.27;2.10;;;11.00;72.70;;;;;;4969845;28;20022;-43
2022/09/18 00:43:51;;;;;;;12.07;2.08;;;10.90;73.10;;;;;;4978221;28;20365;-42
2022/09/18 00:46:30;;;;;;;14.30;2.42;;;10.90;74.90;;;;;;4970972;28;20063;-42
2022/09/18 00:49:23;;;;;;;13.73;2.30;;;11.00;77.30;;;;;;4991951;28;20031;-43
2022/09/18 00:51:53;;;;;;;12.55;1.98;;;11.00;78.20;;;;;;4990693;28;20026;-41
2022/09/18 00:54:33;;;;;;;13.60;2.13;;;11.10;77.30;;;;;;4990646;28;20093;-42
2022/09/18 00:57:07;;;;;;;7.60;2.00;;;11.40;76.30;;;;;;4990395;28;20029;-44
2022/09/18 00:59:35;;;;;;;13.00;3.45;;;11.40;77.90;;;;;;4990645;28;20030;-46
2022/09/18 01:02:01;;;;;;;18.13;2.55;;;11.20;79.90;;;;;;4979306;28;20365;-55
2022/09/18 01:04:28;;;;;;;13.30;2.28;;;11.00;82.00;;;;;;4970124;28;20018;-64
2022/09/18 01:07:08;;;;;;;11.55;2.38;;;10.80;82.70;;;;;;4970877;28;20471;-55
2022/09/18 01:10:08;;;;;;;10.18;3.10;;;10.60;83.30;;;;;;4970922;28;20057;-53
2022/09/18 01:12:45;;;;;;;14.80;2.55;;;10.50;84.00;;;;;;4970742;28;20054;-50
2022/09/18 01:15:23;;;;;;;16.10;2.50;;;10.40;84.00;;;;;;4970944;28;20050;-49
2022/09/18 01:18:17;;;;;;;10.23;2.08;;;10.30;84.40;;;;;;4970751;28;20066;-53
2022/09/18 01:21:06;;;;;;;14.65;2.17;;;10.30;84.50;;;;;;4969774;28;20073;-51
2022/09/18 01:24:09;;;;;;;16.25;2.55;;;10.30;85.00;;;;;;4970963;28;20445;-51
2022/09/18 01:27:01;;;;;;;14.80;2.70;;;10.30;84.40;;;;;;4970832;28;20039;-50
2022/09/18 01:29:34;;;;;;;16.60;2.90;;;10.40;84.30;;;;;;4970745;28;20469;-48
2022/09/18 01:32:18;;;;;;;14.35;2.85;;;10.50;83.00;;;;;;4969586;28;20038;-49
2022/09/18 01:35:04;;;;;;;14.32;1.88;;;10.70;82.40;;;;;;4970576;28;20464;-46
2022/09/18 01:37:40;;;;;;;19.92;3.05;;;10.80;82.20;;;;;;4974785;28;20125;-47
2022/09/18 01:40:16;;;;;;;9.18;2.63;;;10.80;82.20;;;;;;4970149;28;20034;-48
2022/09/18 01:42:47;;;;;;;8.90;1.88;;;10.80;81.80;;;;;;4970503;28;20027;-51
2022/09/18 01:45:18;;;;;;;15.40;3.90;;;10.70;81.30;;;;;;4969151;28;20455;-45
2022/09/18 01:48:07;;;;;;;8.88;2.03;;;10.70;80.10;;;;;;4970769;28;20480;-46
2022/09/18 01:50:38;;;;;;;12.30;2.30;;;10.70;79.70;;;;;;4969643;28;20097;-45
2022/09/18 01:53:15;;;;;;;11.13;2.10;;;10.70;79.60;;;;;;4970482;28;20035;-46
2022/09/18 01:55:45;;;;;;;10.57;1.60;;;10.70;79.40;;;;;;4970471;28;20381;-44
2022/09/18 01:58:17;;;;;;;10.15;2.53;;;10.60;79.40;;;;;;4970307;28;20030;-44
2022/09/18 02:00:50;;;;;;;23.08;2.88;;;10.60;78.20;;;;;;4970291;28;20051;-43
2022/09/18 02:03:40;;;;;;;16.23;3.03;;;10.70;77.70;;;;;;4970201;28;20031;-45
2022/09/18 02:06:13;;;;;;;7.28;2.15;;;10.70;76.00;;;;;;4970403;28;20514;-44
2022/09/18 02:08:49;;;;;;;8.77;1.85;;;10.60;74.60;;;;;;4970406;28;20031;-44
2022/09/18 02:11:18;;;;;;;9.15;1.65;;;10.60;73.80;;;;;;4969432;28;20117;-45
2022/09/18 02:13:47;;;;;;;13.77;2.03;;;10.70;73.10;;;;;;4985699;28;20034;-43
2022/09/18 02:16:38;;;;;;;8.75;1.85;;;10.90;73.20;;;;;;5006273;28;20038;-43
2022/09/18 02:19:10;;;;;;;14.77;3.03;;;11.00;74.20;;;;;;4992718;28;20034;-43
2022/09/18 02:21:36;;;;;;;10.98;1.70;;;10.90;74.90;;;;;;4992917;28;20057;-42
2022/09/18 02:24:10;;;;;;;12.68;2.42;;;10.90;75.50;;;;;;4992985;28;20102;-42
2022/09/18 02:26:38;;;;;;;9.90;2.10;;;10.90;75.00;;;;;;4992735;28;20023;-43
2022/09/18 02:29:06;;;;;;;9.40;2.33;;;10.90;74.90;;;;;;4992749;28;20030;-43
2022/09/18 02:31:36;;;;;;;9.45;2.05;;;10.90;74.20;;;;;;4992661;28;20027;-42
2022/09/18 02:34:02;;;;;;;12.70;2.03;;;10.90;74.30;;;;;;4991630;28;20042;-42
2022/09/18 02:36:39;;;;;;;13.52;3.33;;;11.00;74.40;;;;;;4992428;28;20108;-42
2022/09/18 02:39:24;;;;;;;11.95;2.58;;;11.10;74.70;;;;;;4992295;28;20109;-41
2022/09/18 02:42:23;;;;;;;10.05;1.73;;;11.20;76.60;;;;;;4992383;28;20026;-42
2022/09/18 02:45:00;;;;;;;9.13;2.42;;;11.30;78.50;;;;;;4992740;28;20031;-41
2022/09/18 02:47:47;;;;;;;13.07;2.47;;;11.20;79.20;;;;;;4992876;28;20040;-42
2022/09/18 02:50:26;;;;;;;8.20;1.95;;;11.10;79.80;;;;;;4992749;28;20045;-42
2022/09/18 02:53:29;;;;;;;9.70;1.88;;;11.10;80.30;;;;;;4992559;28;20030;-43
2022/09/18 02:56:03;;;;;;;12.90;2.38;;;11.10;80.40;;;;;;5008117;28;20068;-44
2022/09/18 02:58:45;;;;;;;11.95;1.83;;;11.10;78.90;;;;;;4991555;28;20058;-53
2022/09/18 03:01:13;;;;;;;8.93;1.85;;;10.80;80.60;;;;;;4991542;28;20034;-51
2022/09/18 03:03:38;;;;;;;9.57;1.75;;;10.60;81.20;;;;;;4991416;28;20820;-52
2022/09/18 03:06:08;;;;;;;15.82;1.95;;;10.50;82.20;;;;;;4992370;28;20038;-51
2022/09/18 03:08:36;;;;;;;6.95;1.85;;;10.40;82.40;;;;;;4992384;28;20478;-47
2022/09/18 03:11:02;;;;;;;5.57;1.20;;;10.40;82.10;;;;;;4992302;28;20454;-47
2022/09/18 03:13:28;;;;;;;5.43;1.23;;;10.40;81.00;;;;;;4991326;28;20053;-47
2022/09/18 03:15:54;;;;;;;9.18;1.33;;;10.40;81.00;;;;;;4992219;28;20451;-49
2022/09/18 03:18:20;;;;;;;7.88;1.77;;;10.30;81.40;;;;;;4992230;28;20110;-49
2022/09/18 03:20:50;;;;;;;9.38;2.10;;;10.20;81.60;;;;;;4991208;28;20109;-49
2022/09/18 03:23:16;;;;;;;8.75;2.03;;;10.20;82.00;;;;;;4992220;28;20026;-47
2022/09/18 03:25:41;;;;;;;9.30;2.00;;;10.30;82.00;;;;;;4992164;28;20081;-47
2022/09/18 03:28:07;;;;;;;9.68;1.67;;;10.40;81.80;;;;;;4990793;28;20080;-48
2022/09/18 03:30:33;;;;;;;13.35;2.92;;;10.40;82.00;;;;;;4992050;28;20026;-48
2022/09/18 03:32:59;;;;;;;14.27;2.20;;;10.40;82.40;;;;;;4991840;28;20029;-48
2022/09/18 03:35:24;;;;;;;10.25;1.80;;;10.40;81.80;;;;;;4991875;28;20026;-48
2022/09/18 03:37:50;;;;;;;14.90;2.20;;;10.60;80.10;;;;;;4991758;28;20049;-45
2022/09/18 03:40:15;;;;;;;7.88;1.02;;;10.80;77.50;;;;;;4991641;28;20467;-45
2022/09/18 03:42:45;;;;;;;3.45;0.95;;;10.70;75.60;;;;;;4991056;28;20027;-47
2022/09/18 03:45:11;;;;;;;4.13;1.10;;;10.70;74.30;;;;;;4991331;28;20430;-45
2022/09/18 03:47:39;;;;;;;6.05;1.33;;;10.70;74.30;;;;;;5007422;28;20113;-44
2022/09/18 03:50:05;;;;;;;12.45;1.23;;;10.70;74.20;;;;;;5011149;28;20033;-46
2022/09/18 03:52:33;;;;;;;7.50;1.50;;;10.70;74.40;;;;;;5011359;28;20030;-46
2022/09/18 03:54:59;;;;;;;5.90;0.93;;;10.70;74.10;;;;;;5006152;28;20101;-44
2022/09/18 03:57:25;;;;;;;7.28;1.33;;;10.70;74.80;;;;;;4991541;28;20113;-46
2022/09/18 03:59:50;;;;;;;9.70;2.00;;;10.60;75.40;;;;;;4998257;28;20459;-43
2022/09/18 04:02:16;;;;;;;12.23;2.55;;;10.60;75.90;;;;;;4991368;28;20333;-43
2022/09/18 04:04:41;;;;;;;7.70;1.35;;;10.60;75.90;;;;;;4991312;28;20103;-43
2022/09/18 04:07:07;;;;;;;9.48;1.63;;;10.60;76.00;;;;;;4991357;28;20257;-43
2022/09/18 04:09:35;;;;;;;8.68;1.60;;;10.70;76.10;;;;;;4993313;28;20025;-43
2022/09/18 04:12:01;;;;;;;12.82;1.85;;;10.70;76.60;;;;;;4979432;28;20042;-43
2022/09/18 04:14:26;;;;;;;7.80;1.98;;;10.90;77.70;;;;;;4981284;28;20424;-45
2022/09/18 04:16:52;;;;;;;11.15;1.80;;;11.10;77.80;;;;;;4980269;28;20023;-42
2022/09/18 04:19:18;;;;;;;9.55;2.17;;;11.10;78.40;;;;;;4979768;28;20093;-44
2022/09/18 04:21:43;;;;;;;11.45;1.95;;;11.10;78.90;;;;;;4994515;28;20030;-43
2022/09/18 04:24:09;;;;;;;6.75;1.50;;;11.10;78.90;;;;;;4999731;28;20026;-42
2022/09/18 04:26:35;;;;;;;10.48;1.45;;;11.00;78.10;;;;;;5001404;28;20033;-43
2022/09/18 04:29:01;;;;;;;4.88;1.38;;;11.00;78.20;;;;;;4999197;28;20030;-42
2022/09/18 04:31:26;;;;;;;10.02;1.45;;;10.90;77.90;;;;;;4999572;28;20364;-42
2022/09/18 04:33:52;;;;;;;9.20;1.92;;;10.90;77.80;;;;;;4974035;28;20097;-42
2022/09/18 04:36:20;;;;;;;7.32;1.52;;;10.80;77.60;;;;;;4994742;28;20065;-42
2022/09/18 04:38:46;;;;;;;9.48;1.98;;;10.80;77.60;;;;;;4999441;28;20033;-42
2022/09/18 04:41:14;;;;;;;4.85;1.13;;;10.70;77.70;;;;;;5005650;28;20141;-44
2022/09/18 04:43:42;;;;;;;6.22;1.45;;;10.70;77.70;;;;;;4990981;28;20106;-43
2022/09/18 04:46:08;;;;;;;7.65;1.80;;;10.70;78.10;;;;;;4990626;28;20105;-43
2022/09/18 04:48:33;;;;;;;8.90;1.73;;;10.70;78.60;;;;;;4990715;28;20026;-43
2022/09/18 04:51:01;;;;;;;15.68;2.28;;;10.60;79.30;;;;;;4989397;28;20026;-42
2022/09/18 04:53:27;;;;;;;10.55;1.35;;;10.60;79.60;;;;;;4988074;28;20120;-42
2022/09/18 04:55:53;;;;;;;9.63;1.73;;;10.50;79.90;;;;;;4989036;28;20110;-42
2022/09/18 04:58:19;;;;;;;18.90;3.15;;;10.40;79.40;;;;;;4992779;28;20395;-45
2022/09/18 05:00:49;;;;;;;8.88;1.67;;;10.40;78.10;;;;;;4997055;28;20403;-42
2022/09/18 05:03:18;;;;;;;13.20;2.22;;;10.50;77.00;;;;;;4998663;28;20014;-45
2022/09/18 05:05:43;;;;;;;13.57;2.60;;;10.70;76.70;;;;;;4995649;28;20026;-42
2022/09/18 05:08:09;;;;;;;14.25;2.22;;;10.70;76.70;;;;;;4990528;28;20037;-42
2022/09/18 05:10:34;;;;;;;5.68;1.73;;;10.90;77.20;;;;;;4990161;28;20022;-44
2022/09/18 05:13:02;;;;;;;6.57;1.42;;;10.90;77.70;;;;;;4989423;28;20023;-44
2022/09/18 05:15:28;;;;;;;10.07;2.03;;;11.00;77.50;;;;;;4990327;28;20031;-43
2022/09/18 05:18:01;;;;;;;9.30;1.65;;;11.00;78.30;;;;;;4990332;28;20072;-42
2022/09/18 05:20:27;;;;;;;10.20;1.80;;;11.20;76.90;;;;;;5005542;28;20440;-42
2022/09/18 05:22:53;;;;;;;7.30;1.63;;;11.10;76.70;;;;;;4990147;28;20033;-47
2022/09/18 05:25:23;;;;;;;7.97;1.58;;;10.90;76.60;;;;;;5005532;28;20030;-42
2022/09/18 05:28:00;;;;;;;12.60;1.92;;;10.80;76.40;;;;;;4989864;28;20022;-44
2022/09/18 05:30:29;;;;;;;5.50;1.23;;;10.80;76.80;;;;;;5005456;28;20038;-44
2022/09/18 05:33:00;;;;;;;7.10;1.40;;;10.80;77.90;;;;;;4990085;28;20034;-42
2022/09/18 05:35:28;;;;;;;8.45;2.60;;;10.70;78.40;;;;;;5005613;28;20042;-46
2022/09/18 05:37:54;;;;;;;9.00;1.77;;;10.70;77.40;;;;;;4994857;28;20104;-45
2022/09/18 05:40:22;;;;;;;9.40;1.77;;;10.70;77.80;;;;;;4999183;28;20026;-44
2022/09/18 05:42:49;;;;;;;9.70;2.58;;;10.70;78.30;;;;;;4998238;28;20669;-42
2022/09/18 05:45:15;;;;;;;8.38;2.00;;;10.70;78.60;;;;;;5000434;28;20034;-42
2022/09/18 05:47:41;;;;;;;13.50;1.92;;;10.70;78.80;;;;;;4998405;28;20080;-46
2022/09/18 05:50:10;;;;;;;10.55;1.70;;;10.60;78.90;;;;;;5000088;28;20456;-44
2022/09/18 05:52:36;;;;;;;7.50;1.50;;;10.70;79.10;;;;;;5003085;28;20371;-45
2022/09/18 05:55:02;;;;;;;7.97;1.60;;;10.70;79.50;;;;;;5002147;28;20265;-47
2022/09/18 05:57:27;;;;;;;10.07;1.50;;;10.70;79.70;;;;;;5002996;28;20021;-47
2022/09/18 05:59:53;;;;;;;13.60;1.92;;;10.70;80.20;;;;;;5002776;28;20031;-58
2022/09/18 06:02:18;;;;;;;10.35;1.90;;;10.70;82.30;;;;;;5002428;28;20014;-49
2022/09/18 06:04:44;;;;;;;14.80;1.83;;;10.70;83.60;;;;;;4993602;28;20093;-49
2022/09/18 06:07:11;;;;;;;10.95;1.67;;;10.60;84.50;;;;;;4994010;28;20413;-49
2022/09/18 06:09:38;;;;;;;10.10;1.90;;;10.50;84.90;;;;;;4993299;28;20029;-50
2022/09/18 06:12:04;;;;;;;10.18;2.00;;;10.50;84.70;;;;;;4998325;28;20512;-52
2022/09/18 06:14:29;;;;;;;13.55;2.13;;;10.40;84.00;;;;;;5004196;28;20026;-50
2022/09/18 06:16:55;;;;;;;10.68;1.98;;;10.30;83.70;;;;;;5006482;28;20052;-50
2022/09/18 06:19:21;;;;;;;10.45;3.05;;;10.20;84.00;;;;;;5002463;28;20037;-50
2022/09/18 06:21:46;;;;;;;17.38;2.33;;;10.30;84.50;;;;;;5017616;28;20050;-52
2022/09/18 06:24:12;;;;;;;16.23;2.15;;;10.40;84.10;;;;;;4994378;28;20027;-52
2022/09/18 06:26:40;;;;;;;11.27;1.50;;;10.50;83.80;;;;;;4992317;28;20053;-64
2022/09/18 06:29:05;;;;;;;10.90;1.80;;;10.60;83.50;;;;;;5001813;28;20019;-60
2022/09/18 06:31:31;;;;;;;12.52;1.92;;;10.50;84.40;;;;;;4993185;28;20022;-53
2022/09/18 06:33:56;;;;;;;11.02;1.98;;;10.40;84.70;;;;;;4993134;28;20034;-53
2022/09/18 06:36:22;;;;;;;5.63;1.30;;;10.30;84.70;;;;;;4994100;28;20046;-55
2022/09/18 06:38:51;;;;;;;4.88;1.27;;;10.30;85.60;;;;;;4986725;28;20034;-53
2022/09/18 06:41:16;;;;;;;9.23;2.05;;;10.30;86.10;;;;;;4972863;28;20099;-51
2022/09/18 06:43:42;;;;;;;8.30;1.67;;;10.40;86.30;;;;;;4972473;28;20096;-52
2022/09/18 06:46:09;;;;;;;8.55;2.50;;;10.40;86.50;;;;;;4994542;28;20038;-51
2022/09/18 06:48:35;;;;;;;12.05;1.65;;;10.40;86.30;;;;;;5010949;28;20045;-49
2022/09/18 06:51:01;;;;;;;9.15;1.73;;;10.40;86.40;;;;;;4999936;28;20076;-65
2022/09/18 06:53:26;;;;;;;8.85;1.65;;;10.40;86.30;;;;;;5010887;28;20112;-64
2022/09/18 06:55:56;;;;;;;18.45;3.28;;;10.30;84.90;;;;;;5012695;28;20040;-56
2022/09/18 06:58:22;;;;;;;13.85;2.78;;;10.20;85.10;;;;;;5001123;28;21288;-53
2022/09/18 07:00:48;;;;;;;12.90;2.30;;;10.20;85.90;;;;;;4993960;28;20054;-52
2022/09/18 07:03:13;;;;;;;19.08;2.05;;;10.20;86.30;;;;;;4990917;28;20023;-54
2022/09/18 07:05:41;;;;;;;9.70;1.70;;;10.20;86.20;;;;;;4991426;28;20028;-54
2022/09/18 07:08:08;;;;;;;10.75;2.25;;;10.20;86.20;;;;;;4992868;28;20486;-54
2022/09/18 07:10:34;;;;;;;15.38;1.90;;;10.20;86.30;;;;;;4993054;28;20101;-52
2022/09/18 07:13:04;;;;;;;14.02;2.13;;;10.20;86.00;;;;;;5008884;28;20109;-53
2022/09/18 07:15:30;;;;;;;11.18;2.40;;;10.20;86.60;;;;;;5002931;28;20030;-52
2022/09/18 07:17:59;;;;;;;10.07;1.90;;;10.30;86.50;;;;;;5012083;28;20109;-53
2022/09/18 07:20:25;;;;;;;13.63;2.05;;;10.40;86.50;;;;;;5008087;28;20109;-48
2022/09/18 07:22:59;;;;;;;13.18;1.75;;;10.50;86.20;;;;;;5009463;28;20026;-51
2022/09/18 07:25:28;;;;;;;11.70;2.17;;;10.70;85.90;;;;;;5010776;28;20436;-48
2022/09/18 07:27:54;;;;;;;11.95;2.08;;;10.90;85.70;;;;;;4994851;28;20117;-48
2022/09/18 07:30:20;;;;;;;10.43;2.17;;;11.10;85.10;;;;;;4979522;28;20113;-49
2022/09/18 07:32:49;;;;;;;12.13;2.50;;;11.30;84.30;;;;;;4999062;28;20044;-53
2022/09/18 07:35:15;;;;;;;8.50;1.65;;;11.50;82.80;;;;;;5001440;28;20439;-46
2022/09/18 07:37:40;;;;;;;8.65;1.65;;;11.90;80.90;;;;;;5015277;28;20033;-45
2022/09/18 07:40:08;;;;;;;7.00;1.35;;;12.20;78.10;;;;;;4995027;28;20114;-46
2022/09/18 07:42:34;;;;;;;7.45;1.45;;;12.50;76.20;;;;;;4993733;28;20015;-43
2022/09/18 07:45:01;;;;;;;9.65;1.70;;;12.60;76.50;;;;;;4991620;28;20352;-44
2022/09/18 07:47:27;;;;;;;7.32;1.73;;;12.80;75.00;;;;;;5012064;28;20023;-47
2022/09/18 07:49:55;;;;;;;10.93;1.70;;;12.90;74.40;;;;;;4992544;28;20021;-44
2022/09/18 07:52:21;;;;;;;7.05;1.83;;;13.20;72.60;;;;;;5003362;28;20084;-46
2022/09/18 07:54:46;;;;;;;9.60;1.42;;;13.40;73.40;;;;;;4989775;28;20034;-46
2022/09/18 07:57:12;;;;;;;7.57;1.98;;;13.70;72.50;;;;;;4991245;28;20026;-44
2022/09/18 07:59:38;;;;;;;7.72;1.80;;;13.90;70.30;;;;;;4995437;28;20491;-43
2022/09/18 08:02:04;;;;;;;7.03;1.83;;;13.90;69.90;;;;;;4971248;28;20545;-43
2022/09/18 08:04:30;;;;;;;9.57;2.35;;;13.70;70.10;;;;;;4994682;28;20171;-44
2022/09/18 08:07:02;;;;;;;12.75;2.72;;;13.20;73.00;;;;;;5009651;28;20113;-44
2022/09/18 08:09:28;;;;;;;7.32;1.60;;;12.90;75.10;;;;;;4988410;28;20089;-43
2022/09/18 08:11:53;;;;;;;7.47;1.75;;;12.80;75.00;;;;;;4991042;28;20444;-43
2022/09/18 08:14:21;;;;;;;11.68;2.45;;;12.90;75.20;;;;;;4989303;28;20120;-43
2022/09/18 08:16:47;;;;;;;11.55;2.55;;;13.20;74.00;;;;;;4991093;28;20046;-44
2022/09/18 08:19:13;;;;;;;11.40;2.40;;;13.50;74.60;;;;;;4990266;28;20418;-43
2022/09/18 08:21:38;;;;;;;12.85;2.45;;;13.90;74.80;;;;;;4989337;28;20097;-44
2022/09/18 08:24:04;;;;;;;12.90;2.63;;;14.20;73.90;;;;;;4990440;28;20125;-43
2022/09/18 08:26:30;;;;;;;11.73;2.30;;;14.30;72.40;;;;;;4990060;28;20040;-43
2022/09/18 08:28:56;;;;;;;11.65;2.67;;;14.60;71.50;;;;;;4988925;28;20026;-45
2022/09/18 08:31:21;;;;;;;11.13;2.50;;;14.80;72.80;;;;;;4990041;28;20030;-44
2022/09/18 08:33:51;;;;;;;8.80;2.20;;;15.00;70.00;;;;;;4989207;28;20035;-44
2022/09/18 08:36:16;;;;;;;10.57;2.13;;;15.20;67.20;;;;;;4990098;28;20376;-45
2022/09/18 08:38:42;;;;;;;8.52;2.20;;;15.50;67.20;;;;;;4989128;28;20041;-44
2022/09/18 08:41:35;;;;;;;7.35;2.10;;;15.40;67.80;;;;;;4988968;28;20118;-44
2022/09/18 08:44:23;;;;;;;5.63;1.00;;;14.50;68.50;;;;;;4989966;28;20041;-62
2022/09/18 08:46:51;;;;;;;7.00;2.53;;;12.90;72.30;;;;;;4989728;28;20468;-55
2022/09/18 08:49:54;;;;;;;6.70;1.70;;;12.10;76.20;;;;;;4990058;28;20026;-54
2022/09/18 08:52:33;;;;;;;15.20;2.28;;;11.70;77.80;;;;;;4989840;28;20026;-52
2022/09/18 08:55:04;;;;;;;4.47;1.13;;;11.50;78.50;;;;;;4989936;28;20041;-51
2022/09/18 08:57:48;;;;;;;17.10;3.20;;;11.50;79.80;;;;;;5005028;28;20069;-51
2022/09/18 09:00:34;;;;;;;9.75;1.88;;;11.40;80.00;;;;;;5005353;28;20337;-46
2022/09/18 09:03:14;;;;;;;8.80;1.45;;;11.70;81.10;;;;;;4989910;28;20027;-44
2022/09/18 09:05:48;;;;;;;8.90;1.60;;;12.40;80.90;;;;;;4989734;28;20329;-45
2022/09/18 09:08:46;;;;;;;9.57;1.75;;;12.90;78.80;;;;;;4989526;28;20045;-44
2022/09/18 09:11:24;;;;;;;4.65;1.52;;;13.30;75.60;;;;;;4989014;28;20027;-42
2022/09/18 09:14:18;;;;;;;5.85;0.80;;;13.40;70.80;;;;;;4989408;28;20019;-45
2022/09/18 09:16:55;;;;;;;3.45;0.70;;;13.40;71.20;;;;;;4989825;28;20019;-44
2022/09/18 09:19:27;;;;;;;4.55;0.77;;;13.00;68.60;;;;;;4988261;28;20030;-42
2022/09/18 09:21:53;;;;;;;3.85;0.98;;;12.60;70.20;;;;;;4988751;28;20026;-45
2022/09/18 09:24:41;;;;;;;1.92;0.80;;;12.20;69.60;;;;;;4989376;28;20089;-43
2022/09/18 09:27:27;;;;;;;3.72;0.90;;;12.30;70.40;;;;;;5004137;28;20026;-44
2022/09/18 09:30:17;;;;;;;5.43;0.80;;;12.90;68.60;;;;;;4989368;28;20019;-44
2022/09/18 09:32:53;;;;;;;5.55;1.17;;;13.40;64.90;;;;;;4989403;28;20038;-45
2022/09/18 09:35:21;;;;;;;9.25;1.48;;;13.90;68.50;;;;;;4989466;28;20054;-45
2022/09/18 09:37:52;;;;;;;6.70;1.05;;;14.20;67.90;;;;;;4989308;28;20352;-43
2022/09/18 09:40:40;;;;;;;6.45;1.40;;;14.30;64.80;;;;;;4988752;28;20024;-47
2022/09/18 09:43:21;;;;;;;6.68;1.02;;;14.40;64.10;;;;;;4989026;28;20042;-46
2022/09/18 09:45:49;;;;;;;5.53;1.10;;;14.70;65.80;;;;;;4988878;28;20460;-46
2022/09/18 09:48:25;;;;;;;7.50;1.70;;;15.00;63.70;;;;;;5004672;28;20118;-48
2022/09/18 09:51:08;;;;;;;8.50;2.25;;;15.40;65.60;;;;;;4989175;28;20038;-45
2022/09/18 09:53:35;;;;;;;4.05;0.98;;;15.50;62.80;;;;;;4988902;28;20026;-43
2022/09/18 09:56:35;;;;;;;6.22;1.45;;;15.30;62.10;;;;;;4990043;28;20018;-44
2022/09/18 09:59:23;;;;;;;11.25;2.55;;;15.30;63.70;;;;;;4989821;28;20093;-44
2022/09/18 10:02:00;;;;;;;11.40;2.85;;;14.70;67.30;;;;;;4988413;28;20030;-44
2022/09/18 10:04:40;;;;;;;8.93;2.03;;;14.20;69.50;;;;;;4989669;28;20026;-44
2022/09/18 10:07:51;;;;;;;13.32;2.45;;;13.50;69.90;;;;;;4989598;28;20578;-43
2022/09/18 10:10:28;;;;;;;7.68;1.77;;;13.50;72.70;;;;;;4987749;28;20498;-46
2022/09/18 10:13:00;;;;;;;8.30;2.45;;;13.90;69.00;;;;;;4983918;28;20596;-44
2022/09/18 10:15:47;;;;;;;5.47;1.67;;;14.30;63.70;;;;;;4991172;28;20089;-45
2022/09/18 10:18:33;;;;;;;9.18;2.03;;;14.80;64.20;;;;;;4984329;28;20096;-44
2022/09/18 10:21:11;;;;;;;5.60;1.65;;;15.00;62.80;;;;;;4969592;28;20019;-47
2022/09/18 10:23:42;;;;;;;7.18;1.92;;;15.20;63.60;;;;;;4969747;28;20162;-44
2022/09/18 10:26:30;;;;;;;6.85;1.13;;;15.20;61.60;;;;;;4969260;28;20057;-43
2022/09/18 10:28:59;;;;;;;5.22;1.48;;;15.30;62.70;;;;;;4969234;28;20062;-45
2022/09/18 10:31:48;;;;;;;8.32;1.92;;;15.70;65.10;;;;;;4996926;28;20321;-46
2022/09/18 10:34:44;;;;;;;8.98;1.90;;;15.80;60.00;;;;;;5001065;28;20424;-44
2022/09/18 10:37:16;;;;;;;7.25;1.60;;;15.60;61.20;;;;;;4991765;28;20034;-44
2022/09/18 10:39:50;;;;;;;7.55;1.75;;;15.60;58.60;;;;;;5012594;28;20026;-46
2022/09/18 10:42:20;;;;;;;5.82;1.55;;;15.40;57.20;;;;;;5009165;28;20031;-47
2022/09/18 10:44:57;;;;;;;8.05;1.70;;;15.40;56.80;;;;;;4992720;28;20040;-45
2022/09/18 10:47:27;;;;;;;12.38;3.45;;;15.40;57.80;;;;;;4992992;28;20105;-44
2022/09/18 10:50:00;;;;;;;;;;;15.50;60.80;;;;;;5008838;28;20126;-49
2022/09/18 10:52:34;;;;;;;9.07;2.17;;;15.80;61.00;;;;;;4992751;28;19988;-46
2022/09/18 10:55:06;;;;;;;12.65;2.88;;;15.80;60.30;;;;;;4992554;28;20117;-46
2022/09/18 10:57:34;;;;;;;11.88;2.97;;;14.90;61.30;;;;;;4992329;28;20502;-44
2022/09/18 11:00:03;;;;;;;6.93;1.42;;;14.00;62.50;;;;;;4992271;28;20038;-44
2022/09/18 11:03:13;;;;;;;6.13;1.58;;;13.50;62.90;;;;;;4993393;28;20076;-45
2022/09/18 11:05:47;;;;;;;;;;;12.90;60.60;;;;;;5005924;28;20034;-45
2022/09/18 11:08:16;;;;;;;5.13;1.30;;;13.10;60.90;;;;;;5027167;28;19916;-47
2022/09/18 11:10:49;;;;;;;6.15;1.00;;;13.50;61.80;;;;;;5011216;28;20092;-44
2022/09/18 11:13:24;;;;;;;10.90;1.70;;;14.10;60.80;;;;;;5008341;28;20048;-46
2022/09/18 11:16:01;;;;;;;13.30;2.45;;;14.70;61.20;;;;;;5008382;28;20114;-64
2022/09/18 11:18:31;;;;;;;7.47;1.92;;;14.20;69.90;;;;;;4992344;28;20022;-57
2022/09/18 11:21:01;;;;;;;11.00;2.47;;;12.80;73.30;;;;;;4992188;28;20038;-53
2022/09/18 11:23:28;;;;;;;7.72;1.92;;;12.20;75.90;;;;;;4991820;28;20031;-57
2022/09/18 11:26:18;;;;;;;8.10;1.65;;;11.70;75.80;;;;;;5007371;28;20022;-55
2022/09/18 11:29:15;;;;;;;11.93;3.00;;;11.60;78.90;;;;;;4992302;28;20031;-55
2022/09/18 11:31:46;;;;;;;9.63;1.20;;;11.50;78.40;;;;;;4991998;28;20383;-54
2022/09/18 11:34:28;;;;;;;7.28;1.77;;;11.50;78.10;;;;;;4991894;28;20764;-53
2022/09/18 11:36:59;;;;;;;9.13;1.75;;;11.80;79.70;;;;;;4998329;28;20092;-50
2022/09/18 11:39:35;;;;;;;6.30;0.98;;;12.40;80.30;;;;;;4986235;28;20966;-53
2022/09/18 11:42:08;;;;;;;6.20;1.40;;;12.70;72.70;;;;;;4973728;28;20034;-59
2022/09/18 11:44:36;;;;;;;7.43;1.67;;;12.50;71.60;;;;;;4965781;28;20117;-51
2022/09/18 11:47:29;;;;;;;10.48;2.20;;;12.60;76.40;;;;;;4969928;28;20052;-51
2022/09/18 11:50:14;;;;;;;9.75;1.70;;;12.90;75.80;;;;;;4985003;28;20157;-51
2022/09/18 11:52:46;;;;;;;13.00;2.47;;;12.90;75.00;;;;;;4989227;28;20038;-50
2022/09/18 11:55:32;;;;;;;11.23;3.28;;;12.80;75.10;;;;;;4977144;28;20318;-49
2022/09/18 11:58:31;;;;;;;7.82;3.22;;;12.80;76.00;;;;;;4978242;28;20030;-48
2022/09/18 12:01:31;;;;;;;6.78;1.55;;;12.70;73.90;;;;;;4990303;28;20060;-45
2022/09/18 12:04:11;;;;;;;11.88;1.90;;;13.00;73.60;;;;;;4976907;28;20023;-49
2022/09/18 12:06:47;;;;;;;14.60;2.30;;;13.40;73.40;;;;;;5013109;28;20054;-47
2022/09/18 12:09:27;;;;;;;5.32;1.50;;;13.70;71.90;;;;;;5012090;28;20038;-45
2022/09/18 12:12:17;;;;;;;9.10;2.78;;;14.00;71.70;;;;;;4993479;28;20471;-47
2022/09/18 12:15:05;;;;;;;8.57;2.03;;;14.20;68.60;;;;;;4971645;28;20026;-45
2022/09/18 12:18:00;;;;;;;7.57;2.63;;;14.20;68.80;;;;;;4971773;28;20027;-47
2022/09/18 12:20:32;;;;;;;10.13;1.98;;;14.50;69.60;;;;;;4971715;28;20044;-46
2022/09/18 12:23:00;;;;;;;13.43;3.42;;;14.70;68.70;;;;;;4970817;28;20026;-47
2022/09/18 12:26:03;;;;;;;15.48;3.03;;;14.30;71.00;;;;;;4971772;28;20035;-46
2022/09/18 12:28:29;;;;;;;15.55;3.13;;;14.40;73.50;;;;;;4970437;28;20034;-46
2022/09/18 12:30:59;;;;;;;16.10;3.75;;;14.70;72.60;;;;;;4971250;28;20026;-45
2022/09/18 12:33:56;;;;;;;14.63;2.80;;;14.60;71.40;;;;;;4970392;28;20511;-45
2022/09/18 12:36:45;;;;;;;12.77;4.18;;;14.30;68.40;;;;;;4971460;28;20023;-44
2022/09/18 12:39:38;;;;;;;11.75;1.90;;;14.00;69.50;;;;;;4980774;28;20041;-48
2022/09/18 12:42:31;;;;;;;10.75;2.70;;;13.70;68.10;;;;;;4996109;28;20387;-45
2022/09/18 12:45:15;;;;;;;8.15;1.73;;;13.50;67.20;;;;;;4990920;28;20069;-45
2022/09/18 12:48:12;;;;;;;12.25;2.75;;;13.50;66.50;;;;;;4990322;28;20422;-44
2022/09/18 12:50:57;;;;;;;7.45;2.35;;;13.50;68.00;;;;;;4992529;28;20033;-45
2022/09/18 12:53:37;;;;;;;13.50;2.10;;;13.40;70.80;;;;;;5011143;28;20026;-46
2022/09/18 12:56:03;;;;;;;13.07;2.50;;;13.50;70.30;;;;;;5000229;28;20018;-45
2022/09/18 12:58:43;;;;;;;12.73;2.55;;;13.80;70.30;;;;;;4999317;28;20424;-45
2022/09/18 13:01:24;;;;;;;10.32;2.20;;;14.00;68.20;;;;;;4991439;28;20359;-48
2022/09/18 13:03:52;;;;;;;9.43;2.40;;;14.30;65.50;;;;;;4995469;28;20045;-46
2022/09/18 13:06:34;;;;;;;10.57;2.47;;;14.30;66.10;;;;;;4991186;28;20141;-47
2022/09/18 13:09:18;;;;;;;11.65;2.17;;;14.30;65.60;;;;;;4989064;28;20088;-44
2022/09/18 13:11:52;;;;;;;14.15;2.65;;;14.40;65.90;;;;;;4989873;28;20029;-46
2022/09/18 13:14:31;;;;;;;7.93;1.58;;;14.40;67.10;;;;;;4989819;28;20084;-45